• Join FlightAware (Why Join?)
  • Login
  • US Flag 
02:07PM EDT


 

Airport Tracker/Info


-or-


 

Live Flight TrackerFlight Track Log ✈ ASA745 ✈ 21-Apr-2013 ✈ KATL - KSEA

Flight Track Log - Related Links

Times and Time Zones

All times are in EDT time to prevent confusion due to time zone crossing. See the ASA745 flight status page for this flight to view local times or setup timezone preferences in your user account.

Time Position Orientation Groundspeed Altitude Reporting Facility
EDT Latitude Longitude Course Direction KTS MPH feet Rate Location/Type
09:20AM 33.6500 -84.3667 68° East 175 201 2,900  Level Atlanta TRACON
09:21AM 33.6667 -84.3167 68° East 219 252 4,900 2,280 Climbing Atlanta TRACON
09:22AM 33.6833 -84.2167 79° East 278 320 7,700 2,460 Climbing Atlanta TRACON
09:23AM 33.7500 -84.1833 23° Northeast 297 342 10,100 1,260 Climbing Atlanta TRACON
09:24AM 33.8333 -84.1833 360° North 321 369 10,100 1,020 Level Atlanta TRACON
09:26AM 33.9817 -84.3569 316° Northwest 328 377 13,700 1,080 Climbing Atlanta Center
09:27AM 34.0336 -84.4500 304° West 335 386 14,000 420 Climbing Atlanta Center
09:28AM 34.0981 -84.5331 313° West 340 391 14,600 840 Climbing Atlanta Center
09:29AM 34.1708 -84.6139 317° Northwest 340 391 15,700 1,560 Climbing Atlanta Center
09:30AM 34.2433 -84.6972 316° Northwest 354 407 17,800 1,920 Climbing Atlanta Center
09:31AM 34.3411 -84.7508 336° Northwest 389 448 19,600 1,920 Climbing Atlanta Center
09:32AM 34.4472 -84.7994 339° North 402 463 21,700 2,040 Climbing Atlanta Center
09:33AM 34.5681 -84.8536 340° North 412 474 23,700 1,620 Climbing Atlanta Center
09:34AM 34.6700 -84.8975 341° North 418 481 25,000 1,320 Climbing Atlanta Center
09:35AM 34.7864 -84.9492 340° North 430 495 26,400 1,500 Climbing Atlanta Center
09:36AM 34.9069 -85.0011 341° North 442 509 28,000 1,380 Climbing Atlanta Center
09:37AM 35.0003 -85.0936 321° Northwest 434 499 29,200 1,260 Climbing Atlanta Center
09:38AM 35.0786 -85.2036 311° West 421 484 30,600 1,380 Climbing Atlanta Center
09:39AM 35.1589 -85.3142 312° West 426 490 32,000 660 Climbing Atlanta Center
09:40AM 35.2389 -85.4247 312° West 431 496 32,000  Level Atlanta Center
09:41AM 35.3192 -85.5356 312° West 431 496 32,000 420 Level Atlanta Center
09:42AM 35.4150 -85.6669 312° West 439 505 32,900 1,140 Climbing Memphis Center
09:43AM 35.4922 -85.7772 311° West 439 505 34,500 1,200 Climbing Memphis Center
09:44AM 35.5692 -85.8828 312° West 433 498 35,300 660 Climbing Memphis Center
09:45AM 35.6503 -85.9958 311° West 433 498 35,900 300 Climbing Memphis Center
09:46AM 35.7225 -86.0969 311° West 439 505 36,000  Climbing Memphis Center
09:47AM 35.7994 -86.2108 310° West 439 505 36,000  Level Memphis Center
09:48AM 35.8800 -86.3194 312° West 444 511 36,000  Level Memphis Center
09:49AM 35.9631 -86.4306 313° West 444 511 36,000  Level Memphis Center
09:50AM 36.0456 -86.5397 313° West 444 511 36,000  Level Memphis Center
09:51AM 36.1281 -86.6489 313° West 439 505 36,000  Level Memphis Center
09:52AM 36.2150 -86.7683 312° West 439 505 36,000  Level Memphis Center
09:53AM 36.2928 -86.8681 314° West 439 505 36,000  Level Memphis Center
09:54AM 36.3861 -86.9928 313° West 443 510 36,000  Level Memphis Center
09:55AM 36.4617 -87.0956 312° West 450 518 36,000  Level Memphis Center
09:56AM 36.5458 -87.2058 314° West 445 512 36,000  Level Memphis Center
09:57AM 36.6300 -87.3189 313° West 450 518 36,000  Level Memphis Center
09:58AM 36.7139 -87.4322 313° West 450 518 36,000  Level Memphis Center
09:59AM 36.7978 -87.5458 313° West 450 518 36,000  Level Memphis Center
10:00AM 36.8794 -87.6594 312° West 450 518 36,000  Level Memphis Center
10:01AM 36.9719 -87.7836 313° West 445 512 36,000  Level Memphis Center
10:02AM 37.0533 -87.8953 312° West 445 512 36,000  Level Memphis Center
10:03AM 37.1347 -88.0075 312° West 440 506 36,000  Level Memphis Center
10:06AM 37.3111 -88.2511 312° West 437 503 36,000  Level Kansas City Center
10:07AM 37.3925 -88.3647 312° West 438 504 36,000  Level Kansas City Center
10:08AM 37.4750 -88.4806 312° West 442 509 36,000  Level Kansas City Center
10:09AM 37.5567 -88.5950 312° West 442 509 36,000  Level Kansas City Center
10:10AM 37.6392 -88.7114 312° West 443 510 36,000  Level Kansas City Center
10:11AM 37.7208 -88.8267 312° West 442 509 36,000  Level Kansas City Center
10:12AM 37.8006 -88.9408 311° West 436 502 36,000  Level Kansas City Center
10:13AM 37.8964 -89.0747 312° West 437 503 36,000  Level Kansas City Center
10:14AM 37.9742 -89.1914 310° West 434 499 36,000  Level Kansas City Center
10:15AM 38.0617 -89.3125 313° West 434 499 36,000  Level Kansas City Center
10:16AM 38.1328 -89.4353 306° West 431 496 36,000  Level Kansas City Center
10:17AM 38.2000 -89.5608 304° West 429 494 36,000  Level Kansas City Center
10:18AM 38.2731 -89.6961 305° West 430 495 36,000  Level Kansas City Center
10:19AM 38.3411 -89.8222 305° West 431 496 36,000  Level Kansas City Center
10:20AM 38.4019 -89.9350 305° West 429 494 36,000  Level Kansas City Center
10:21AM 38.4689 -90.0606 304° West 429 494 36,000  Level Kansas City Center
10:22AM 38.5350 -90.1867 304° West 428 493 36,000  Level Kansas City Center
10:23AM 38.6017 -90.3142 304° West 428 493 36,000  Level Kansas City Center
10:24AM 38.6778 -90.4556 305° West 431 496 36,000  Level Kansas City Center
10:25AM 38.7428 -90.5831 303° West 430 495 36,000  Level Kansas City Center
10:26AM 38.8064 -90.7056 304° West 430 495 36,000  Level Kansas City Center
10:27AM 38.8736 -90.8344 304° West 433 498 36,000  Level Kansas City Center
10:28AM 38.9528 -90.9864 304° West 429 494 36,000  Level Kansas City Center
10:29AM 39.0183 -91.1136 304° West 428 493 36,000  Level Kansas City Center
10:30AM 39.0836 -91.2408 303° West 427 491 36,000  Level Kansas City Center
10:31AM 39.1475 -91.3681 303° West 426 490 36,000  Level Kansas City Center
10:32AM 39.2119 -91.4944 303° West 425 489 36,000  Level Kansas City Center
10:33AM 39.2769 -91.6222 303° West 425 489 36,000  Level Kansas City Center
10:34AM 39.3508 -91.7681 303° West 424 488 36,000  Level Kansas City Center
10:35AM 39.4147 -91.8947 303° West 424 488 36,000  Level Kansas City Center
10:36AM 39.4775 -92.0222 303° West 423 487 36,000  Level Kansas City Center
10:37AM 39.5414 -92.1511 303° West 426 490 36,000  Level Kansas City Center
10:38AM 39.6050 -92.2789 303° West 425 489 36,000  Level Kansas City Center
10:39AM 39.6694 -92.4078 303° West 425 489 36,000  Level Kansas City Center
10:41AM 39.7322 -92.5383 302° West 426 490 36,000  Level Kansas City Center
10:42AM 39.7958 -92.6667 303° West 425 489 36,000  Level Kansas City Center
10:43AM 39.8719 -92.8214 303° West 424 488 36,000  Level Kansas City Center
10:44AM 39.9350 -92.9517 302° West 424 488 36,000  Level Kansas City Center
10:45AM 39.9975 -93.0794 303° West 421 484 36,000  Level Kansas City Center
10:46AM 40.0589 -93.2100 302° West 422 486 36,000  Level Kansas City Center
10:47AM 40.1197 -93.3394 302° West 420 483 36,000  Level Kansas City Center
10:48AM 40.1842 -93.4714 303° West 425 489 36,000  Level Kansas City Center
10:49AM 40.2456 -93.6028 302° West 426 490 36,000  Level Kansas City Center
10:50AM 40.3083 -93.7333 302° West 425 489 36,000  Level Kansas City Center
10:51AM 40.3819 -93.8911 302° West 426 490 36,000  Level Kansas City Center
10:52AM 40.4303 -93.9958 301° West 425 489 36,000  Level Minneapolis Center
10:53AM 40.4919 -94.1278 302° West 425 489 36,000  Level Minneapolis Center
10:54AM 40.5528 -94.2586 301° West 424 488 36,000  Level Minneapolis Center
10:55AM 40.6375 -94.4408 302° West 420 483 36,000  Level Minneapolis Center
10:57AM 40.7608 -94.7078 301° West 418 481 36,000  Level Minneapolis Center
10:58AM 40.8211 -94.8392 301° West 418 481 36,000  Level Minneapolis Center
10:59AM 40.8814 -94.9694 301° West 418 481 36,000  Level Minneapolis Center
11:00AM 40.9411 -95.1028 301° West 421 484 36,000  Level Minneapolis Center
11:01AM 41.0019 -95.2347 301° West 421 484 36,000  Level Minneapolis Center
11:02AM 41.0611 -95.3675 301° West 421 484 36,000  Level Minneapolis Center
11:03AM 41.1211 -95.5011 301° West 420 483 36,000  Level Minneapolis Center
11:04AM 41.1925 -95.6586 301° West 423 487 36,000  Level Minneapolis Center
11:05AM 41.2519 -95.7922 301° West 421 484 36,000  Level Minneapolis Center
11:06AM 41.3108 -95.9286 300° West 425 489 36,000  Level Minneapolis Center
11:07AM 41.3703 -96.0622 301° West 421 484 36,000  Level Minneapolis Center
11:08AM 41.4289 -96.1961 300° West 419 482 36,000  Level Minneapolis Center
11:09AM 41.4869 -96.3308 300° West 419 482 36,000  Level Minneapolis Center
11:10AM 41.5511 -96.4789 300° West 414 476 36,000  Level Minneapolis Center
11:11AM 41.6089 -96.6133 300° West 417 480 36,000  Level Minneapolis Center
11:12AM 41.6667 -96.7481 300° West 419 482 36,000  Level Minneapolis Center
11:13AM 41.7236 -96.8828 300° West 417 480 36,000  Level Minneapolis Center
11:14AM 41.7825 -97.0186 300° West 420 483 36,000  Level Minneapolis Center
11:15AM 41.8392 -97.1558 299° West 421 484 36,000 -60 Level Minneapolis Center
11:16AM 41.8983 -97.2906 301° West 420 483 35,900 -540 Descending Minneapolis Center
11:17AM 41.9528 -97.4228 299° West 410 472 35,000 -720 Descending Minneapolis Center
11:18AM 42.0094 -97.5603 299° West 416 479 34,500 -540 Descending Minneapolis Center
11:19AM 42.0669 -97.6989 299° West 421 484 34,000 -300 Descending Minneapolis Center
11:20AM 42.1292 -97.8469 300° West 423 487 34,000  Level Minneapolis Center
11:22AM 42.1864 -97.9839 299° West 422 486 34,000  Level Minneapolis Center
11:23AM 42.2414 -98.1219 298° West 420 483 34,000  Level Minneapolis Center
11:24AM 42.3078 -98.2853 299° West 417 480 34,000  Level Minneapolis Center
11:25AM 42.3653 -98.4233 299° West 421 484 34,000  Level Minneapolis Center
11:26AM 42.4208 -98.5622 298° West 421 484 34,000  Level Minneapolis Center
11:27AM 42.4756 -98.6969 299° West 414 476 34,000  Level Minneapolis Center
11:28AM 42.5261 -98.8353 296° West 411 473 34,000  Level Minneapolis Center
11:29AM 42.5769 -98.9711 297° West 407 468 34,000  Level Minneapolis Center
11:30AM 42.6292 -99.1125 297° West 416 479 34,000  Level Minneapolis Center
11:31AM 42.6817 -99.2528 297° West 417 480 34,000  Level Minneapolis Center
11:32AM 42.7333 -99.3942 296° West 418 481 34,000  Level Minneapolis Center
11:33AM 42.7958 -99.5636 297° West 418 481 34,000  Level Minneapolis Center
11:34AM 42.8431 -99.6978 296° West 419 482 34,000  Level Minneapolis Center
11:34AM 42.8528 -99.7236 297° West 415 478 34,000  Level Denver Center
11:35AM 42.8942 -99.8383 296° West 416 479 34,000  Level Minneapolis Center
11:36AM 42.9458 -99.9794 297° West 416 479 34,000  Level Minneapolis Center
11:37AM 42.9969 -100.1239 296° West 419 482 34,000  Level Minneapolis Center
11:37AM 43.0172 -100.1797 296° West 419 482 34,000  Level Denver Center
11:38AM 43.0675 -100.3228 296° West 418 481 34,000  Level Denver Center
11:39AM 43.1081 -100.4372 296° West 416 479 34,000  Level Minneapolis Center
11:40AM 43.1575 -100.5786 296° West 412 474 34,000  Level Minneapolis Center
11:40AM 43.1675 -100.6069 296° West 414 476 34,000  Level Denver Center
11:41AM 43.2167 -100.7489 295° West 413 475 34,000  Level Denver Center
11:42AM 43.2661 -100.8878 296° West 406 467 34,000  Level Denver Center
11:43AM 43.3144 -101.0289 295° West 407 468 34,000  Level Denver Center
11:44AM 43.3731 -101.1983 295° West 408 470 34,000  Level Denver Center
11:45AM 43.4206 -101.3375 295° West 403 464 34,000  Level Denver Center
11:46AM 43.4683 -101.4783 295° West 404 465 34,000  Level Denver Center
11:47AM 43.5167 -101.6200 295° West 407 468 34,000  Level Denver Center
11:48AM 43.5647 -101.7619 295° West 407 468 34,000  Level Denver Center
11:50AM 43.6114 -101.9031 295° West 404 465 34,000  Level Denver Center
11:51AM 43.6589 -102.0431 295° West 402 463 34,000  Level Denver Center
11:52AM 43.7097 -102.1983 294° West 402 463 34,000  Level Denver Center
11:53AM 43.7619 -102.3528 295° West 400 460 34,000  Level Denver Center
11:54AM 43.8042 -102.4839 294° West 393 452 34,000  Level Denver Center
11:55AM 43.8542 -102.6361 295° West 391 450 34,000  Level Denver Center
11:56AM 43.8969 -102.7678 294° West 392 451 34,000  Level Denver Center
11:57AM 43.9464 -102.9194 294° West 389 448 34,000  Level Denver Center
11:58AM 43.9881 -103.0483 294° West 387 445 34,000  Level Denver Center
11:59AM 44.0436 -103.1972 297° West 387 445 34,000  Level Denver Center
12:00PM 44.0872 -103.3217 296° West 381 438 34,000  Level Denver Center
12:01PM 44.1328 -103.4472 297° West 381 438 34,000  Level Denver Center
12:02PM 44.1842 -103.5942 296° West 379 436 34,000  Level Denver Center
12:03PM 44.2300 -103.7219 297° West 384 442 34,000  Level Denver Center
12:04PM 44.2833 -103.8744 296° West 390 449 34,000  Level Denver Center
12:05PM 44.3292 -104.0028 297° West 388 447 34,000  Level Denver Center
12:06PM 44.3808 -104.1547 295° West 388 447 34,000  Level Denver Center
12:07PM 44.4269 -104.2842 297° West 389 448 34,000  Level Denver Center
12:08PM 44.4775 -104.4347 295° West 383 441 34,000  Level Denver Center
12:09PM 44.5222 -104.5619 296° West 381 438 34,000  Level Denver Center
12:10PM 44.5731 -104.7119 295° West 382 440 34,000  Level Denver Center
12:11PM 44.6167 -104.8411 295° West 382 440 34,000  Level Denver Center
12:12PM 44.6686 -104.9919 296° West 383 441 34,000  Level Denver Center
12:13PM 44.7119 -105.1247 295° West 389 448 34,000  Level Denver Center
12:14PM 44.7592 -105.2642 296° West 391 450 34,000  Level Denver Center
12:15PM 44.8103 -105.4197 295° West 391 450 34,000  Level Denver Center
12:16PM 44.8547 -105.5539 295° West 395 455 34,000  Level Denver Center
12:17PM 44.9067 -105.7114 295° West 397 457 34,000  Level Denver Center
12:18PM 44.9511 -105.8458 295° West 397 457 34,000  Level Denver Center
12:19PM 45.0019 -106.0031 295° West 395 455 34,000  Level Denver Center
12:21PM 45.0453 -106.1394 294° West 397 457 34,000  Level Denver Center
12:22PM 45.0958 -106.2956 295° West 393 452 34,000  Level Denver Center
12:23PM 45.1394 -106.4300 295° West 392 451 34,000  Level Denver Center
12:24PM 45.1892 -106.5878 294° West 393 452 34,000  Level Denver Center
12:25PM 45.2322 -106.7228 294° West 393 452 34,000  Level Salt Lake Center
12:26PM 45.2811 -106.8819 294° West 395 455 34,000  Level Salt Lake Center
12:27PM 45.3250 -107.0189 295° West 396 456 34,000  Level Salt Lake Center
12:28PM 45.3672 -107.1522 294° West 391 450 34,000  Level Salt Lake Center
12:29PM 45.4161 -107.3172 293° West 404 465 34,000  Level Salt Lake Center
12:30PM 45.4586 -107.4556 294° West 400 460 34,000  Level Salt Lake Center
12:31PM 45.5075 -107.6169 293° West 398 458 34,000  Level Salt Lake Center
12:32PM 45.5503 -107.7561 294° West 401 461 34,000  Level Salt Lake Center
12:33PM 45.5992 -107.9186 293° West 402 463 34,000  Level Salt Lake Center
12:34PM 45.6408 -108.0564 293° West 397 457 34,000  Level Salt Lake Center
12:35PM 45.6886 -108.2178 293° West 396 456 34,000  Level Salt Lake Center
12:36PM 45.7294 -108.3558 293° West 395 455 34,000  Level Salt Lake Center
12:37PM 45.7708 -108.4947 293° West 397 457 34,000  Level Salt Lake Center
12:38PM 45.8186 -108.6514 294° West 390 449 34,000  Level Salt Lake Center
12:39PM 45.8522 -108.7928 289° West 390 449 34,000  Level Salt Lake Center
12:40PM 45.8950 -108.9586 290° West 396 456 34,000  Level Salt Lake Center
12:41PM 45.9308 -109.1006 290° West 395 455 34,000  Level Salt Lake Center
12:42PM 45.9733 -109.2681 290° West 400 460 34,000  Level Salt Lake Center
12:43PM 46.0094 -109.4114 290° West 400 460 34,000  Level Salt Lake Center
12:44PM 46.0456 -109.5567 290° West 403 464 34,000  Level Salt Lake Center
12:45PM 46.0878 -109.7256 290° West 404 465 34,000  Level Salt Lake Center
12:46PM 46.1228 -109.8731 289° West 406 467 34,000  Level Salt Lake Center
12:47PM 46.1628 -110.0428 289° West 401 461 34,000  Level Salt Lake Center
12:48PM 46.1983 -110.1881 290° West 401 461 34,000  Level Salt Lake Center
12:49PM 46.2322 -110.3339 289° West 401 461 34,000  Level Salt Lake Center
12:50PM 46.2728 -110.5022 289° West 398 458 34,000  Level Salt Lake Center
12:51PM 46.3072 -110.6481 289° West 400 460 34,000  Level Salt Lake Center
12:52PM 46.3481 -110.8178 289° West 401 461 34,000  Level Salt Lake Center
12:53PM 46.3844 -110.9764 288° West 401 461 34,000  Level Salt Lake Center
12:54PM 46.4208 -111.1283 289° West 401 461 34,000  Level Salt Lake Center
12:55PM 46.4558 -111.2872 288° West 403 464 34,000  Level Salt Lake Center
12:56PM 46.4914 -111.4428 288° West 406 467 34,000  Level Salt Lake Center
12:57PM 46.5264 -111.5978 288° West 405 466 34,000  Level Salt Lake Center
12:59PM 46.5625 -111.7542 289° West 407 468 34,000  Level Salt Lake Center
01:00PM 46.5961 -111.9097 288° West 406 467 34,000  Level Salt Lake Center
01:01PM 46.6339 -112.0633 290° West 405 466 34,000  Level Salt Lake Center
01:02PM 46.6717 -112.2164 290° West 403 464 34,000  Level Salt Lake Center
01:03PM 46.7097 -112.3689 290° West 401 461 34,000  Level Salt Lake Center
01:04PM 46.7458 -112.5197 289° West 397 457 34,000  Level Salt Lake Center
01:05PM 46.7828 -112.6725 289° West 398 458 34,000  Level Salt Lake Center
01:06PM 46.8264 -112.8522 290° West 394 453 34,000  Level Salt Lake Center
01:07PM 46.8639 -113.0058 290° West 400 460 34,000  Level Salt Lake Center
01:08PM 46.8989 -113.1544 289° West 390 449 34,000  Level Salt Lake Center
01:09PM 46.9350 -113.3044 289° West 390 449 34,000  Level Salt Lake Center
01:10PM 46.9697 -113.4544 289° West 389 448 34,000  Level Salt Lake Center
01:11PM 47.0033 -113.6014 289° West 384 442 34,000  Level Salt Lake Center
01:12PM 47.0378 -113.7492 289° West 381 438 34,000  Level Salt Lake Center
01:13PM 47.0717 -113.8964 289° West 381 438 34,000  Level Salt Lake Center
01:14PM 47.1047 -114.0436 288° West 380 437 34,000  Level Salt Lake Center
01:15PM 47.1386 -114.1903 289° West 379 436 34,000  Level Salt Lake Center
01:16PM 47.1783 -114.3681 288° West 382 440 34,000  Level Salt Lake Center
01:17PM 47.2119 -114.5175 288° West 385 443 34,000  Level Salt Lake Center
01:18PM 47.2400 -114.6383 289° West 386 444 34,000  Level Seattle Center
01:19PM 47.2719 -114.7883 287° West 385 443 34,000  Level Seattle Center
01:20PM 47.3056 -114.9403 288° West 387 445 34,000  Level Seattle Center
01:21PM 47.3378 -115.0911 288° West 386 444 34,000  Level Seattle Center
01:22PM 47.3703 -115.2400 288° West 383 441 34,000  Level Seattle Center
01:23PM 47.4031 -115.3917 288° West 386 444 34,000  Level Seattle Center
01:24PM 47.4342 -115.5403 287° West 382 440 34,000  Level Seattle Center
01:25PM 47.4611 -115.6928 285° West 386 444 34,000  Level Seattle Center
01:26PM 47.4697 -115.8550 275° West 384 442 34,000  Level Seattle Center
01:27PM 47.4783 -116.0119 275° West 384 442 34,000  Level Seattle Center
01:28PM 47.4878 -116.1689 275° West 385 443 34,000  Level Seattle Center
01:29PM 47.4972 -116.3261 275° West 384 442 34,000  Level Seattle Center
01:30PM 47.5056 -116.4839 275° West 386 444 34,000  Level Seattle Center
01:31PM 47.5147 -116.6419 275° West 388 447 34,000  Level Seattle Center
01:32PM 47.5236 -116.7997 275° West 385 443 34,000  Level Seattle Center
01:33PM 47.5331 -116.9578 275° West 386 444 34,000  Level Seattle Center
01:34PM 47.5406 -117.1386 274° West 384 442 34,000  Level Seattle Center
01:35PM 47.5483 -117.2839 275° West 383 441 34,000  Level Seattle Center
01:36PM 47.5564 -117.4425 274° West 385 443 34,000  Level Seattle Center
01:37PM 47.5636 -117.5997 274° West 385 443 34,000  Level Seattle Center
01:38PM 47.5764 -117.7569 277° West 384 442 34,000  Level Seattle Center
01:39PM 47.5917 -117.9128 278° West 383 441 34,000  Level Seattle Center
01:40PM 47.6094 -118.1006 278° West 386 444 34,000  Level Seattle Center
01:41PM 47.6239 -118.2547 278° West 380 437 34,000  Level Seattle Center
01:42PM 47.6372 -118.4111 277° West 383 441 34,000  Level Seattle Center
01:43PM 47.6511 -118.5653 278° West 379 436 34,000  Level Seattle Center
01:44PM 47.6639 -118.7211 277° West 382 440 34,000  Level Seattle Center
01:45PM 47.6778 -118.8758 278° West 380 437 34,000  Level Seattle Center
01:46PM 47.6908 -119.0342 277° West 387 445 34,000  Level Seattle Center
01:47PM 47.7036 -119.1933 277° West 390 449 34,000  Level Seattle Center
01:48PM 47.7183 -119.3533 278° West 392 451 34,000  Level Seattle Center
01:49PM 47.7308 -119.5144 277° West 394 453 34,000 -480 Level Seattle Center
01:50PM 47.7431 -119.6728 277° West 389 448 33,100 -960 Descending Seattle Center
01:51PM 47.7547 -119.8258 277° West 376 433 32,100 -1,380 Descending Seattle Center
01:52PM 47.7672 -119.9794 277° West 375 432 30,300 -2,040 Descending Seattle Center
01:53PM 47.7806 -120.1525 277° West 355 409 28,000 -1,200 Descending Seattle Center
01:54PM 47.7897 -120.2906 276° West 339 390 28,000  Level Seattle Center
01:55PM 47.8008 -120.4283 277° West 337 388 28,000  Level Seattle Center
01:56PM 47.8094 -120.5636 275° West 332 382 28,000 -960 Level Seattle Center
01:57PM 47.8192 -120.6997 276° West 333 383 26,100 -1,920 Descending Seattle Center
01:58PM 47.8278 -120.8267 276° West 317 365 24,200 -1,860 Descending Seattle Center
01:59PM 47.8378 -120.9469 277° West 304 350 22,400 -1,800 Descending Seattle Center
02:00PM 47.8461 -121.0631 276° West 291 335 20,600 -1,740 Descending Seattle Center
02:01PM 47.8519 -121.1772 274° West 283 326 18,900 -1,620 Descending Seattle Center
02:02PM 47.8600 -121.2925 276° West 283 326 17,400 -1,860 Descending Seattle Center
02:03PM 47.8683 -121.4136 276° West 283 326 15,500 -1,980 Descending Seattle Center
02:04PM 47.8758 -121.5447 275° West 280 322 13,400 -1,560 Descending Seattle Center
02:05PM 47.8822 -121.6572 275° West 277 319 12,200 -780 Descending Seattle Center
02:06PM 47.8542 -121.7464 245° Southwest 273 314 12,000 -600 Descending Seattle Center
02:07PM 47.7967 -121.8256 223° Southwest 264 304 11,000 -900 Descending Seattle Center
02:08PM 47.7786 -121.9117 253° West 210 242 10,200 -1,080 Descending Seattle Center
02:10PM 47.7736 -121.9956 265° West 215 247 8,800 -1,500 Descending Seattle Center
02:11PM 47.7822 -122.0961 277° West 220 253 7,200 -1,440 Descending Seattle Center
02:11PM 47.7900 -122.1661 279° West 223 257 6,300 -1,140 Descending Seattle Center
02:12PM 47.7908 -122.1942 273° West 223 257 6,100 -360 Descending Seattle Center
02:13PM 47.7519 -122.2619 230° Southwest 221 254 5,900 -660 Descending Seattle Center
02:14PM 47.6978 -122.3025 207° Southwest 219 252 4,800 -960 Descending Seattle Center
02:14PM 47.6481 -122.3175 191° South 218 251 4,200 -1,080 Descending Seattle Center
02:15PM 47.5844 -122.3200 182° South 204 235 2,800 -1,200 Descending Seattle Center
02:16PM 47.5350 -122.3178 178° South 173 199 1,800 -900 Descending Seattle Center
02:17PM 47.4947 -122.3169 179° South 147 169 1,100 -720 Descending Seattle Center
02:18PM 47.4886 -122.3175 184° South 153 176 1,000 -600 Descending Seattle Center
02:19PM 47.4450 -122.3186 181° South 145 167 400 -600 Descending Seattle Center